Time;durP1;ratioP1;P1;durP2;ratioP2;P2;SDS_P1;SDS_P2;PMS_P1;PMS_P2;Temp;Humidity;BMP_temperature;BMP_pressure;BME280_temperature;BME280_humidity;BME280_pressure;Samples;Min_cycle;Max_cycle;Signal;HPM_P1;HPM_P2
2022/03/11 00:02:26;;;;;;;5.03;2.03;;;17.00;35.40;;;;;;5092757;27;45230;-77
2022/03/11 00:04:54;;;;;;;3.35;2.50;;;17.00;35.50;;;;;;5097105;27;45342;-76
2022/03/11 00:07:21;;;;;;;3.28;2.25;;;17.00;35.10;;;;;;5084280;27;46419;-77
2022/03/11 00:09:47;;;;;;;4.18;2.45;;;17.00;35.40;;;;;;5083205;27;45296;-77
2022/03/11 00:12:14;;;;;;;4.03;2.50;;;17.00;35.60;;;;;;5090043;27;45388;-76
2022/03/11 00:14:41;;;;;;;3.45;2.13;;;17.00;35.80;;;;;;5106632;27;45338;-77
2022/03/11 00:17:08;;;;;;;2.95;2.13;;;17.00;35.80;;;;;;5098778;27;47398;-77
2022/03/11 00:19:35;;;;;;;2.78;2.08;;;17.00;35.90;;;;;;5097898;27;45240;-77
2022/03/11 00:22:04;;;;;;;4.05;2.47;;;16.90;35.70;;;;;;5098599;27;45382;-77
2022/03/11 00:24:31;;;;;;;3.60;2.30;;;17.00;35.50;;;;;;5093969;27;45270;-77
2022/03/11 00:26:58;;;;;;;4.18;2.60;;;17.00;35.40;;;;;;5086722;28;46493;-77
2022/03/11 00:29:25;;;;;;;4.03;2.40;;;17.00;35.40;;;;;;5100216;27;45237;-77
2022/03/11 00:31:51;;;;;;;3.45;2.50;;;17.00;35.10;;;;;;5080642;28;45659;-77
2022/03/11 00:34:18;;;;;;;4.30;2.85;;;17.10;35.20;;;;;;5089002;27;45337;-77
2022/03/11 00:36:45;;;;;;;4.70;2.60;;;17.10;35.10;;;;;;5097418;27;46599;-76
2022/03/11 00:39:13;;;;;;;4.30;2.38;;;17.10;35.40;;;;;;5099057;27;45160;-77
2022/03/11 00:41:40;;;;;;;3.60;2.20;;;17.10;35.00;;;;;;5099636;27;45273;-77
2022/03/11 00:44:07;;;;;;;5.05;2.72;;;17.10;35.00;;;;;;5097944;27;45497;-77
2022/03/11 00:46:34;;;;;;;3.35;2.10;;;17.10;35.00;;;;;;5087872;27;45462;-77
2022/03/11 00:49:01;;;;;;;3.67;2.30;;;17.10;35.10;;;;;;5085559;28;45217;-77
2022/03/11 00:51:28;;;;;;;3.58;2.55;;;17.10;35.10;;;;;;5087607;27;45149;-76
2022/03/11 00:53:55;;;;;;;3.70;2.50;;;17.10;35.00;;;;;;5105217;27;45511;-77
2022/03/11 00:56:24;;;;;;;4.97;2.50;;;17.10;34.90;;;;;;5108963;27;47983;-77
2022/03/11 00:58:51;;;;;;;3.40;2.22;;;17.10;35.00;;;;;;5092423;27;45233;-77
2022/03/11 01:01:17;;;;;;;3.50;2.38;;;17.00;34.90;;;;;;5097012;27;45214;-77
2022/03/11 01:03:44;;;;;;;3.42;2.08;;;17.00;35.10;;;;;;5099267;27;45307;-77
2022/03/11 01:06:11;;;;;;;3.65;2.17;;;17.00;35.00;;;;;;5086521;27;46449;-77
2022/03/11 01:08:38;;;;;;;5.53;2.60;;;17.00;35.10;;;;;;5092273;27;45283;-77
2022/03/11 01:11:08;;;;;;;3.60;2.28;;;17.00;34.90;;;;;;5101037;27;45286;-77
2022/03/11 01:13:36;;;;;;;4.03;2.45;;;17.00;34.90;;;;;;5090925;27;45376;-77
2022/03/11 01:16:03;;;;;;;3.38;2.38;;;17.00;34.90;;;;;;5099718;27;46468;-77
2022/03/11 01:18:30;;;;;;;4.03;2.58;;;17.00;35.10;;;;;;5090363;27;45322;-77
2022/03/11 01:20:58;;;;;;;2.97;2.13;;;17.00;34.90;;;;;;5093839;27;45262;-77
2022/03/11 01:23:25;;;;;;;3.50;2.20;;;17.00;35.10;;;;;;5108918;27;45179;-77
2022/03/11 01:25:52;;;;;;;3.42;2.20;;;17.00;35.10;;;;;;5092746;27;45244;-77
2022/03/11 01:28:18;;;;;;;3.65;2.60;;;17.00;34.90;;;;;;5098376;27;45232;-77
2022/03/11 01:30:47;;;;;;;2.67;1.90;;;17.10;34.90;;;;;;5092849;27;45174;-77
2022/03/11 01:33:13;;;;;;;4.47;2.50;;;17.00;34.60;;;;;;5084594;27;45179;-77
2022/03/11 01:35:40;;;;;;;3.33;2.10;;;17.10;34.80;;;;;;5087724;27;46635;-77
2022/03/11 01:38:07;;;;;;;3.28;2.30;;;17.10;34.90;;;;;;5089580;27;45374;-77
2022/03/11 01:40:34;;;;;;;3.72;2.22;;;17.10;34.70;;;;;;5094464;27;45310;-77
2022/03/11 01:43:00;;;;;;;3.20;2.05;;;17.10;34.80;;;;;;5086476;27;45308;-77
2022/03/11 01:45:27;;;;;;;3.92;2.40;;;17.10;34.90;;;;;;5092233;27;45514;-77
2022/03/11 01:47:55;;;;;;;3.25;2.35;;;17.10;34.80;;;;;;5086597;27;45371;-77
2022/03/11 01:50:22;;;;;;;3.90;2.35;;;17.10;35.00;;;;;;5084207;28;45346;-77
2022/03/11 01:52:49;;;;;;;3.78;2.40;;;17.10;34.60;;;;;;5089917;27;45256;-77
2022/03/11 01:55:16;;;;;;;3.75;2.42;;;17.10;34.60;;;;;;5107884;27;45983;-77
2022/03/11 01:57:43;;;;;;;3.95;2.10;;;17.00;34.70;;;;;;5090767;27;45273;-77
2022/03/11 02:00:11;;;;;;;2.55;1.83;;;17.00;35.00;;;;;;5096260;27;45280;-77
2022/03/11 02:02:37;;;;;;;3.65;2.33;;;17.00;35.00;;;;;;5088775;27;45593;-77
2022/03/11 02:05:07;;;;;;;4.38;2.70;;;17.00;35.10;;;;;;5095034;27;47180;-77
2022/03/11 02:07:34;;;;;;;3.75;2.22;;;17.00;34.90;;;;;;5089925;27;45395;-77
2022/03/11 02:10:00;;;;;;;2.70;2.08;;;17.00;34.90;;;;;;5094886;27;45202;-76
2022/03/11 02:12:28;;;;;;;2.97;1.90;;;17.00;34.80;;;;;;5087582;27;45347;-77
2022/03/11 02:14:55;;;;;;;5.40;2.47;;;17.00;34.90;;;;;;5099742;27;46606;-77
2022/03/11 02:17:22;;;;;;;2.75;2.05;;;17.00;34.90;;;;;;5095832;27;45298;-76
2022/03/11 02:19:49;;;;;;;3.72;2.20;;;17.00;34.80;;;;;;5090355;27;45312;-77
2022/03/11 02:22:21;;;;;;;3.53;2.25;;;17.00;34.90;;;;;;5087054;28;45506;-77
2022/03/11 02:24:49;;;;;;;2.50;1.65;;;17.00;34.70;;;;;;5086520;27;47159;-77
2022/03/11 02:27:15;;;;;;;3.40;2.15;;;17.10;34.80;;;;;;5087140;27;45353;-77
2022/03/11 02:29:42;;;;;;;3.53;2.20;;;17.10;34.90;;;;;;5095065;27;45286;-76
2022/03/11 02:32:10;;;;;;;2.97;2.05;;;17.10;34.80;;;;;;5086039;27;45382;-77
2022/03/11 02:34:37;;;;;;;3.22;2.15;;;17.10;34.80;;;;;;5103710;27;46675;-77
2022/03/11 02:37:05;;;;;;;5.03;2.10;;;17.10;34.70;;;;;;5086234;27;45462;-76
2022/03/11 02:39:32;;;;;;;2.67;1.80;;;17.10;34.70;;;;;;5080623;27;45218;-77
2022/03/11 02:42:01;;;;;;;3.92;2.00;;;17.10;35.90;;;;;;5087474;27;45575;-77
2022/03/11 02:44:31;;;;;;;4.10;2.40;;;17.10;34.60;;;;;;5089166;27;48151;-77
2022/03/11 02:46:59;;;;;;;3.03;2.10;;;17.10;34.40;;;;;;5090691;27;45314;-77
2022/03/11 02:49:26;;;;;;;3.58;2.10;;;17.00;34.40;;;;;;5092711;27;45409;-77
2022/03/11 02:51:53;;;;;;;3.45;2.20;;;17.00;34.30;;;;;;5079156;27;45559;-77
2022/03/11 02:54:20;;;;;;;3.00;2.00;;;17.00;34.60;;;;;;5092397;27;45293;-77
2022/03/11 02:56:47;;;;;;;3.05;2.17;;;17.00;34.60;;;;;;5088171;27;45197;-76
2022/03/11 02:59:15;;;;;;;2.92;2.00;;;17.00;34.70;;;;;;5099778;27;45245;-77
2022/03/11 03:01:42;;;;;;;3.90;2.28;;;17.00;34.70;;;;;;5093732;27;45351;-77
2022/03/11 03:04:11;;;;;;;3.28;2.22;;;17.00;34.70;;;;;;5103008;27;46277;-77
2022/03/11 03:06:38;;;;;;;3.35;2.38;;;17.00;34.60;;;;;;5088676;27;45235;-77
2022/03/11 03:09:04;;;;;;;2.35;2.00;;;17.00;34.70;;;;;;5089197;27;45299;-77
2022/03/11 03:11:31;;;;;;;2.75;2.15;;;17.00;34.80;;;;;;5094218;27;45203;-77
2022/03/11 03:13:58;;;;;;;3.53;2.28;;;17.00;34.80;;;;;;5097973;27;46388;-77
2022/03/11 03:16:26;;;;;;;3.35;2.35;;;17.00;35.10;;;;;;5108231;27;45190;-77
2022/03/11 03:18:53;;;;;;;3.28;2.35;;;17.00;34.60;;;;;;5098473;27;45370;-77
2022/03/11 03:21:20;;;;;;;3.08;2.33;;;17.00;34.70;;;;;;5103256;27;45329;-77
2022/03/11 03:23:47;;;;;;;3.53;2.30;;;17.10;34.60;;;;;;5088319;28;46118;-77
2022/03/11 03:26:13;;;;;;;3.30;1.90;;;17.10;34.50;;;;;;5087325;27;45412;-77
2022/03/11 03:28:41;;;;;;;4.38;2.20;;;17.00;34.60;;;;;;5088922;27;45212;-77
2022/03/11 03:31:08;;;;;;;3.35;2.05;;;17.10;34.90;;;;;;5086881;27;45251;-77
2022/03/11 03:33:36;;;;;;;3.78;2.08;;;17.00;34.70;;;;;;5089231;28;45279;-77
2022/03/11 03:36:02;;;;;;;3.20;2.10;;;17.10;34.70;;;;;;5089433;28;45676;-77
2022/03/11 03:38:29;;;;;;;4.40;2.42;;;17.10;34.80;;;;;;5087940;28;45192;-77
2022/03/11 03:40:56;;;;;;;3.08;2.17;;;17.00;34.50;;;;;;5088950;27;45335;-77
2022/03/11 03:43:23;;;;;;;3.72;2.50;;;17.00;34.70;;;;;;5088127;27;47115;-77
2022/03/11 03:45:50;;;;;;;3.28;2.20;;;17.10;34.70;;;;;;5087950;27;45149;-77
2022/03/11 03:48:16;;;;;;;4.40;2.38;;;17.00;34.70;;;;;;5084576;28;45290;-77
2022/03/11 03:50:45;;;;;;;5.05;2.75;;;17.00;34.60;;;;;;5087233;27;45083;-76
2022/03/11 03:53:12;;;;;;;2.67;2.25;;;17.00;34.80;;;;;;5087493;28;47016;-77
2022/03/11 03:55:38;;;;;;;3.25;2.30;;;17.00;34.90;;;;;;5088403;28;45307;-77
2022/03/11 03:58:05;;;;;;;3.45;2.25;;;17.00;34.80;;;;;;5088215;27;45196;-77
2022/03/11 04:00:32;;;;;;;3.15;2.45;;;17.00;34.90;;;;;;5095767;27;45268;-77
2022/03/11 04:02:59;;;;;;;3.10;2.10;;;17.00;35.00;;;;;;5086909;27;47426;-77
2022/03/11 04:05:26;;;;;;;2.80;2.20;;;17.00;35.20;;;;;;5096406;27;45958;-77
2022/03/11 04:07:54;;;;;;;3.80;2.20;;;17.00;35.40;;;;;;5095250;27;45535;-77
2022/03/11 04:10:21;;;;;;;4.00;2.55;;;17.00;35.50;;;;;;5085026;27;45358;-76
2022/03/11 04:12:48;;;;;;;4.60;2.40;;;16.90;35.50;;;;;;5091899;27;47263;-77
2022/03/11 04:15:15;;;;;;;3.08;2.03;;;17.00;35.10;;;;;;5092886;27;45288;-77
2022/03/11 04:17:42;;;;;;;2.85;2.00;;;17.00;35.40;;;;;;5091126;27;45563;-77
2022/03/11 04:20:10;;;;;;;3.15;2.17;;;17.00;35.20;;;;;;5094448;27;45381;-77
2022/03/11 04:22:41;;;;;;;3.35;1.95;;;17.10;35.30;;;;;;5104822;27;46565;-77
2022/03/11 04:25:10;;;;;;;2.80;2.00;;;17.10;35.40;;;;;;5090439;27;45350;-77
2022/03/11 04:27:37;;;;;;;3.65;2.03;;;17.10;35.40;;;;;;5103097;27;45280;-77
2022/03/11 04:30:04;;;;;;;3.70;2.50;;;17.10;35.30;;;;;;5090836;27;45319;-77
2022/03/11 04:32:31;;;;;;;3.58;2.20;;;17.10;35.20;;;;;;5089177;27;46627;-77
2022/03/11 04:34:58;;;;;;;2.40;1.95;;;17.10;35.50;;;;;;5099652;27;45247;-77
2022/03/11 04:37:25;;;;;;;3.80;2.33;;;17.10;35.20;;;;;;5108146;27;45253;-76
2022/03/11 04:39:52;;;;;;;3.75;2.70;;;17.10;35.30;;;;;;5086145;27;45205;-77
2022/03/11 04:42:20;;;;;;;4.00;2.47;;;17.10;35.40;;;;;;5094516;27;45223;-77
2022/03/11 04:44:47;;;;;;;4.20;2.70;;;17.00;35.30;;;;;;5089548;27;45266;-77
2022/03/11 04:47:16;;;;;;;3.42;2.28;;;17.00;35.00;;;;;;5102415;27;45288;-77
2022/03/11 04:49:43;;;;;;;3.75;2.63;;;17.00;35.10;;;;;;5092105;27;45424;-77
2022/03/11 04:52:10;;;;;;;3.55;2.20;;;17.00;35.20;;;;;;5098453;27;45367;-77
2022/03/11 04:54:36;;;;;;;4.00;2.45;;;17.00;35.40;;;;;;5102075;27;45323;-77
2022/03/11 04:57:04;;;;;;;4.25;2.65;;;17.00;35.20;;;;;;5105427;27;45182;-77
2022/03/11 04:59:32;;;;;;;5.20;2.95;;;17.00;35.10;;;;;;5092887;27;45323;-77
2022/03/11 05:01:59;;;;;;;3.47;2.42;;;17.00;35.20;;;;;;5090191;27;45200;-77
2022/03/11 05:04:26;;;;;;;5.07;3.00;;;17.00;34.90;;;;;;5104552;27;45378;-76
2022/03/11 05:06:53;;;;;;;4.10;2.53;;;17.00;35.10;;;;;;5092916;27;45624;-77
2022/03/11 05:09:19;;;;;;;4.97;2.95;;;17.00;34.70;;;;;;5090051;27;45957;-77
2022/03/11 05:11:46;;;;;;;3.67;2.38;;;17.00;34.80;;;;;;5106933;27;46179;-78
2022/03/11 05:14:13;;;;;;;4.32;2.70;;;17.00;34.80;;;;;;5097219;27;45628;-78
2022/03/11 05:16:41;;;;;;;4.50;2.72;;;17.10;34.40;;;;;;5096062;27;45224;-78
2022/03/11 05:19:08;;;;;;;3.55;2.28;;;17.00;34.50;;;;;;5103543;27;45232;-78
2022/03/11 05:21:35;;;;;;;3.58;2.30;;;17.00;35.10;;;;;;5089481;27;45360;-78
2022/03/11 05:24:03;;;;;;;4.22;2.67;;;17.00;35.60;;;;;;5089717;27;45492;-77
2022/03/11 05:26:30;;;;;;;4.05;2.60;;;17.00;35.50;;;;;;5088527;27;45344;-78
2022/03/11 05:28:58;;;;;;;4.80;3.03;;;16.90;35.50;;;;;;5092386;27;45551;-78
2022/03/11 05:31:26;;;;;;;4.38;2.85;;;17.00;35.60;;;;;;5085687;27;45205;-78
2022/03/11 05:33:54;;;;;;;3.25;2.53;;;17.00;35.40;;;;;;5082790;27;45375;-78
2022/03/11 05:36:22;;;;;;;4.28;3.00;;;17.00;35.40;;;;;;5084353;27;45306;-78
2022/03/11 05:38:49;;;;;;;5.32;3.22;;;16.90;35.60;;;;;;5083808;27;45277;-78
2022/03/11 05:41:16;;;;;;;4.85;2.75;;;16.90;35.20;;;;;;5092453;27;46155;-77
2022/03/11 05:43:43;;;;;;;4.22;3.00;;;16.90;35.00;;;;;;5099162;27;45161;-78
2022/03/11 05:46:10;;;;;;;4.13;2.67;;;16.90;34.80;;;;;;5100910;27;45141;-78
2022/03/11 05:48:37;;;;;;;4.57;3.15;;;16.90;34.50;;;;;;5088915;27;45263;-77
2022/03/11 05:51:05;;;;;;;4.47;3.10;;;16.80;34.80;;;;;;5086022;27;46167;-78
2022/03/11 05:53:32;;;;;;;5.70;3.72;;;16.80;34.60;;;;;;5088294;27;45695;-78
2022/03/11 05:55:59;;;;;;;5.40;3.42;;;16.80;34.20;;;;;;5087153;27;45092;-78
2022/03/11 05:58:26;;;;;;;6.47;3.85;;;16.80;34.10;;;;;;5097663;27;45364;-77
2022/03/11 06:00:53;;;;;;;5.60;3.42;;;16.80;34.00;;;;;;5100889;27;45602;-77
2022/03/11 06:03:20;;;;;;;4.50;3.50;;;16.80;34.10;;;;;;5103296;27;45279;-77
2022/03/11 06:05:47;;;;;;;5.60;3.42;;;16.80;34.00;;;;;;5087177;27;45385;-77
2022/03/11 06:08:15;;;;;;;5.35;3.70;;;16.80;33.70;;;;;;5093938;27;45225;-77
2022/03/11 06:10:44;;;;;;;7.97;4.15;;;16.80;33.60;;;;;;5093109;27;46242;-78
2022/03/11 06:13:11;;;;;;;6.10;3.80;;;16.80;33.30;;;;;;5085165;27;45362;-77
2022/03/11 06:15:38;;;;;;;5.30;3.40;;;16.80;33.80;;;;;;5083291;27;45299;-77
2022/03/11 06:18:05;;;;;;;4.30;3.38;;;16.80;33.80;;;;;;5098505;27;45524;-77
2022/03/11 06:20:32;;;;;;;5.25;3.63;;;16.80;33.80;;;;;;5097283;27;46389;-77
2022/03/11 06:23:00;;;;;;;5.60;3.70;;;16.80;33.60;;;;;;5088941;27;45322;-78
2022/03/11 06:25:28;;;;;;;4.43;3.15;;;16.80;33.80;;;;;;5093712;27;45385;-78
2022/03/11 06:27:55;;;;;;;5.60;3.75;;;16.80;33.40;;;;;;5093922;27;45279;-77
2022/03/11 06:30:22;;;;;;;6.00;3.67;;;16.80;33.70;;;;;;5091228;27;45304;-77
2022/03/11 06:32:51;;;;;;;7.18;3.67;;;16.80;33.70;;;;;;5092688;27;45511;-77
2022/03/11 06:35:19;;;;;;;5.88;4.05;;;16.80;33.70;;;;;;5094249;27;45242;-77
2022/03/11 06:37:50;;;;;;;5.80;3.80;;;16.80;33.70;;;;;;5087987;27;45257;-77
2022/03/11 06:40:18;;;;;;;7.10;4.22;;;16.80;34.10;;;;;;5086688;27;46398;-77
2022/03/11 06:42:49;;;;;;;6.10;3.72;;;16.80;34.80;;;;;;5089500;28;45359;-77
2022/03/11 06:45:17;;;;;;;6.18;3.67;;;16.90;35.20;;;;;;5095348;27;45343;-77
2022/03/11 06:47:46;;;;;;;6.07;3.60;;;16.90;35.40;;;;;;5091258;27;45284;-77
2022/03/11 06:50:13;;;;;;;6.97;3.83;;;16.90;35.50;;;;;;5088275;28;46219;-77
2022/03/11 06:52:39;;;;;;;5.40;3.80;;;16.90;35.50;;;;;;5097346;27;45224;-77
2022/03/11 06:55:07;;;;;;;5.65;3.80;;;17.00;35.60;;;;;;5098930;27;45310;-77
2022/03/11 06:57:35;;;;;;;5.43;3.60;;;17.00;35.70;;;;;;5095131;27;45373;-77
2022/03/11 07:00:05;;;;;;;5.25;3.50;;;17.00;35.90;;;;;;5086935;27;46465;-77
2022/03/11 07:02:34;;;;;;;5.60;3.78;;;17.00;35.70;;;;;;5088251;27;45280;-78
2022/03/11 07:05:01;;;;;;;5.05;3.28;;;17.00;35.60;;;;;;5083919;27;45387;-77
2022/03/11 07:07:30;;;;;;;4.95;3.03;;;16.90;35.70;;;;;;5090854;27;45160;-77
2022/03/11 07:09:56;;;;;;;6.35;4.03;;;17.00;37.00;;;;;;5103148;27;45446;-76
2022/03/11 07:12:23;;;;;;;5.20;3.25;;;17.10;35.80;;;;;;5092918;27;46138;-77
2022/03/11 07:14:50;;;;;;;6.22;3.78;;;17.10;36.10;;;;;;5096076;27;45307;-77
2022/03/11 07:17:18;;;;;;;5.95;3.50;;;17.10;36.00;;;;;;5086449;27;45483;-77
2022/03/11 07:19:45;;;;;;;6.63;4.17;;;17.00;35.90;;;;;;5092572;27;46185;-78
2022/03/11 07:22:12;;;;;;;9.57;3.50;;;17.10;35.90;;;;;;5093811;27;45466;-76
2022/03/11 07:24:41;;;;;;;4.90;3.00;;;17.10;37.40;;;;;;5103256;27;45298;-76
2022/03/11 07:27:08;;;;;;;4.78;2.63;;;17.10;37.50;;;;;;5092012;27;45393;-76
2022/03/11 07:29:34;;;;;;;4.82;2.75;;;17.10;37.60;;;;;;5085989;27;47957;-75
2022/03/11 07:32:01;;;;;;;5.47;2.83;;;17.10;37.70;;;;;;5093237;27;45946;-76
2022/03/11 07:34:29;;;;;;;6.15;2.60;;;17.10;37.70;;;;;;5089238;28;45264;-75
2022/03/11 07:36:56;;;;;;;4.75;2.72;;;17.10;38.00;;;;;;5099250;27;45469;-76
2022/03/11 07:39:23;;;;;;;4.47;2.50;;;17.10;37.70;;;;;;5090256;27;47924;-76
2022/03/11 07:41:51;;;;;;;3.60;2.47;;;17.10;37.50;;;;;;5090141;27;45426;-75
2022/03/11 07:44:18;;;;;;;4.57;2.90;;;17.10;37.40;;;;;;5089048;28;45311;-76
2022/03/11 07:46:45;;;;;;;6.07;3.05;;;17.10;37.40;;;;;;5089477;27;45580;-76
2022/03/11 07:49:12;;;;;;;6.53;3.10;;;17.10;37.40;;;;;;5095040;27;46520;-76
2022/03/11 07:51:40;;;;;;;5.82;3.10;;;17.20;36.90;;;;;;5107911;27;45180;-76
2022/03/11 07:54:07;;;;;;;4.45;2.70;;;17.10;37.20;;;;;;5109442;27;45322;-75
2022/03/11 07:56:34;;;;;;;4.30;2.80;;;17.20;37.20;;;;;;5089884;27;45434;-76
2022/03/11 07:59:02;;;;;;;4.13;2.80;;;17.20;37.00;;;;;;5091872;27;45324;-76
2022/03/11 08:01:29;;;;;;;4.63;3.03;;;17.20;36.70;;;;;;5099103;27;45255;-75
2022/03/11 08:03:55;;;;;;;5.10;3.38;;;17.20;36.50;;;;;;5092909;27;45181;-76
2022/03/11 08:06:22;;;;;;;6.25;3.53;;;17.20;36.90;;;;;;5086489;27;45355;-75
2022/03/11 08:08:50;;;;;;;6.18;3.42;;;17.20;36.50;;;;;;5089968;27;45493;-76
2022/03/11 08:11:17;;;;;;;6.18;3.30;;;17.20;36.50;;;;;;5108461;27;45210;-76
2022/03/11 08:13:44;;;;;;;5.78;3.33;;;17.20;36.50;;;;;;5088421;27;45264;-76
2022/03/11 08:16:11;;;;;;;5.68;3.42;;;17.20;36.10;;;;;;5089492;27;45538;-76
2022/03/11 08:18:38;;;;;;;5.93;3.65;;;17.20;37.40;;;;;;5088466;27;47388;-77
2022/03/11 08:21:04;;;;;;;5.07;3.63;;;17.20;35.90;;;;;;5108526;27;45228;-76
2022/03/11 08:23:32;;;;;;;5.97;3.60;;;17.30;35.90;;;;;;5098726;27;46198;-77
2022/03/11 08:26:00;;;;;;;5.05;3.47;;;17.30;35.70;;;;;;5103671;27;45204;-77
2022/03/11 08:28:27;;;;;;;5.30;3.28;;;17.20;35.70;;;;;;5092116;27;45346;-76
2022/03/11 08:30:55;;;;;;;5.05;3.28;;;17.20;35.60;;;;;;5101896;27;45260;-76
2022/03/11 08:33:23;;;;;;;6.05;3.67;;;17.20;35.50;;;;;;5108676;27;45444;-76
2022/03/11 08:35:52;;;;;;;6.00;3.53;;;17.30;35.70;;;;;;5098715;27;45295;-77
2022/03/11 08:38:20;;;;;;;5.40;3.80;;;17.30;35.50;;;;;;5086570;28;46611;-76
2022/03/11 08:40:46;;;;;;;5.78;3.88;;;17.30;35.50;;;;;;5093015;27;45304;-76
2022/03/11 08:43:19;;;;;;;5.93;3.80;;;17.30;35.20;;;;;;5085399;27;45273;-76
2022/03/11 08:45:47;;;;;;;6.60;4.13;;;17.30;35.10;;;;;;5098173;27;45261;-76
2022/03/11 08:48:14;;;;;;;6.63;3.65;;;17.30;35.20;;;;;;5085029;27;48250;-76
2022/03/11 08:50:41;;;;;;;6.47;4.28;;;17.30;35.10;;;;;;5088539;27;45293;-77
2022/03/11 08:53:07;;;;;;;7.38;3.97;;;17.30;34.90;;;;;;5086669;27;45214;-77
2022/03/11 08:55:34;;;;;;;5.25;3.70;;;17.30;34.90;;;;;;5091113;27;45444;-76
2022/03/11 08:58:01;;;;;;;6.03;3.83;;;17.30;35.00;;;;;;5091401;27;46286;-77
2022/03/11 09:00:29;;;;;;;6.13;4.00;;;17.30;34.70;;;;;;5086150;27;45341;-77
2022/03/11 09:02:56;;;;;;;6.72;3.95;;;17.40;35.10;;;;;;5092798;27;45606;-77
2022/03/11 09:05:23;;;;;;;5.65;3.97;;;17.40;34.60;;;;;;5095124;27;45764;-77
2022/03/11 09:07:51;;;;;;;5.78;4.30;;;17.40;34.60;;;;;;5088415;27;46516;-77
2022/03/11 09:10:19;;;;;;;6.85;4.03;;;17.40;34.70;;;;;;5076986;27;45584;-76
2022/03/11 09:12:47;;;;;;;6.70;4.20;;;17.40;34.70;;;;;;5101876;27;45570;-77
2022/03/11 09:15:14;;;;;;;5.20;3.55;;;17.40;34.50;;;;;;5092836;27;45227;-76
2022/03/11 09:17:44;;;;;;;7.55;4.00;;;17.40;34.50;;;;;;5091711;27;45520;-77
2022/03/11 09:20:12;;;;;;;6.68;4.38;;;17.40;34.70;;;;;;5088472;27;45276;-77
2022/03/11 09:22:40;;;;;;;5.28;3.78;;;17.40;35.50;;;;;;5099171;27;45195;-76
2022/03/11 09:25:08;;;;;;;7.38;3.70;;;17.40;35.50;;;;;;5091988;27;45299;-77
2022/03/11 09:27:35;;;;;;;5.18;3.72;;;17.40;35.50;;;;;;5091418;27;46328;-77
2022/03/11 09:30:03;;;;;;;5.72;3.83;;;17.40;35.40;;;;;;5097312;27;45301;-77
2022/03/11 09:32:30;;;;;;;7.00;3.67;;;17.40;35.40;;;;;;5084825;28;45553;-77
2022/03/11 09:34:59;;;;;;;5.20;3.53;;;17.50;35.60;;;;;;5071276;27;45251;-76
2022/03/11 09:37:26;;;;;;;6.72;3.78;;;17.60;35.90;;;;;;5106444;27;45474;-78
2022/03/11 09:39:53;;;;;;;5.43;3.55;;;17.50;35.60;;;;;;5095233;27;45532;-79
2022/03/11 09:42:20;;;;;;;4.43;3.17;;;17.50;35.90;;;;;;5098972;27;45347;-78
2022/03/11 09:44:51;;;;;;;6.10;3.63;;;17.40;35.80;;;;;;5086505;28;45254;-78
2022/03/11 09:47:19;;;;;;;5.83;3.80;;;17.40;36.10;;;;;;5098688;27;46423;-78
2022/03/11 09:49:46;;;;;;;5.38;3.95;;;17.40;36.50;;;;;;5086221;27;46362;-78
2022/03/11 09:52:15;;;;;;;4.93;3.50;;;17.30;36.20;;;;;;5103478;27;45189;-79
2022/03/11 09:54:42;;;;;;;5.53;3.33;;;17.30;36.70;;;;;;5095852;27;45188;-79
2022/03/11 09:57:09;;;;;;;6.43;3.38;;;17.30;36.80;;;;;;5088671;27;45414;-79
2022/03/11 09:59:36;;;;;;;4.28;3.30;;;17.30;37.60;;;;;;5087722;27;45208;-78
2022/03/11 10:02:04;;;;;;;4.30;3.20;;;17.30;36.70;;;;;;5087612;27;45534;-79
2022/03/11 10:04:31;;;;;;;4.90;3.30;;;17.30;37.00;;;;;;5097050;27;45489;-78
2022/03/11 10:06:58;;;;;;;6.53;3.25;;;17.30;36.90;;;;;;5088155;27;46003;-79
2022/03/11 10:09:33;;;;;;;4.95;3.10;;;17.30;36.70;;;;;;5099568;27;45334;-78
2022/03/11 10:12:05;;;;;;;4.28;3.20;;;17.20;37.20;;;;;;5087281;27;45362;-78
2022/03/11 10:14:35;;;;;;;7.20;3.28;;;17.20;37.20;;;;;;5087366;27;45265;-78
2022/03/11 10:17:03;;;;;;;5.65;3.58;;;17.20;36.90;;;;;;5095451;27;45410;-78
2022/03/11 10:19:30;;;;;;;6.38;3.35;;;17.20;37.00;;;;;;5101330;27;45568;-78
2022/03/11 10:21:58;;;;;;;4.25;3.30;;;17.20;36.90;;;;;;5088660;27;45359;-78
2022/03/11 10:24:26;;;;;;;8.00;4.57;;;17.30;37.10;;;;;;5098656;27;45391;-79
2022/03/11 10:26:57;;;;;;;6.95;3.80;;;17.30;38.50;;;;;;5096286;27;47421;-78
2022/03/11 10:29:27;;;;;;;7.10;3.67;;;17.30;38.70;;;;;;5098249;27;45844;-77
2022/03/11 10:31:57;;;;;;;6.03;3.80;;;17.40;40.70;;;;;;5091281;27;45249;-78
2022/03/11 10:34:25;;;;;;;6.82;3.60;;;17.60;39.60;;;;;;5097201;27;45334;-78
2022/03/11 10:36:55;;;;;;;6.40;3.30;;;17.80;39.00;;;;;;5108120;27;46181;-78
2022/03/11 10:39:25;;;;;;;5.63;3.20;;;18.10;38.50;;;;;;5096352;27;45209;-78
2022/03/11 10:41:53;;;;;;;5.05;3.38;;;18.30;38.70;;;;;;5092822;27;45176;-78
2022/03/11 10:44:23;;;;;;;5.72;3.33;;;18.60;38.90;;;;;;5103199;27;45313;-78
2022/03/11 10:46:50;;;;;;;6.90;3.40;;;18.80;38.50;;;;;;5097525;27;45509;-79
2022/03/11 10:49:29;;;;;;;4.25;3.10;;;19.10;38.60;;;;;;5093517;27;45200;-78
2022/03/11 10:51:56;;;;;;;4.57;3.35;;;19.30;38.60;;;;;;5094603;27;45390;-78
2022/03/11 10:54:27;;;;;;;7.55;4.00;;;19.30;38.40;;;;;;5094937;27;45338;-79
2022/03/11 10:56:54;;;;;;;4.80;3.45;;;19.40;38.40;;;;;;5087120;27;46214;-78
2022/03/11 10:59:29;;;;;;;9.02;3.42;;;19.60;38.80;;;;;;5092177;27;45221;-78
2022/03/11 11:01:57;;;;;;;4.68;3.20;;;19.80;38.80;;;;;;5088503;27;45251;-79
2022/03/11 11:04:26;;;;;;;6.88;3.70;;;19.80;38.70;;;;;;5089007;27;45304;-78
2022/03/11 11:06:53;;;;;;;5.72;3.45;;;20.00;38.40;;;;;;5088035;27;48156;-79
2022/03/11 11:09:22;;;;;;;6.72;3.47;;;20.20;39.40;;;;;;5092308;27;45194;-79
2022/03/11 11:11:50;;;;;;;6.45;3.88;;;20.20;38.90;;;;;;5107327;27;45562;-79
2022/03/11 11:14:17;;;;;;;5.47;3.60;;;20.30;38.30;;;;;;5091997;27;45337;-79
2022/03/11 11:16:48;;;;;;;6.82;3.97;;;20.20;39.00;;;;;;5091313;27;45551;-78
2022/03/11 11:19:17;;;;;;;7.90;4.63;;;20.20;39.20;;;;;;5085464;27;45319;-78
2022/03/11 11:21:45;;;;;;;8.90;4.72;;;20.20;39.90;;;;;;5089722;28;45212;-78
2022/03/11 11:24:14;;;;;;;7.80;4.70;;;20.20;38.90;;;;;;5090091;27;45158;-78
2022/03/11 11:26:45;;;;;;;7.90;4.25;;;20.30;37.90;;;;;;5087027;27;48388;-78
2022/03/11 11:29:12;;;;;;;9.00;4.32;;;20.20;38.10;;;;;;5088957;28;45163;-78
2022/03/11 11:31:42;;;;;;;7.30;4.15;;;20.10;38.20;;;;;;5089233;27;45260;-79
2022/03/11 11:37:08;;;;;;;7.65;4.55;;;20.00;38.20;;;;;;5167123;27;45377;-78
2022/03/11 11:39:41;;;;;;;9.70;4.13;;;20.10;38.60;;;;;;5148158;27;45535;-78
2022/03/11 11:42:10;;;;;;;5.63;3.72;;;20.10;38.90;;;;;;5150793;27;46609;-78
2022/03/11 11:44:38;;;;;;;11.68;4.00;;;20.20;38.10;;;;;;5145586;27;45471;-78
2022/03/11 11:47:09;;;;;;;7.63;3.88;;;20.20;37.70;;;;;;5144349;27;45462;-78
2022/03/11 11:49:46;;;;;;;6.57;4.22;;;20.10;37.50;;;;;;5149023;27;45417;-78
2022/03/11 11:52:29;;;;;;;6.95;4.07;;;19.90;36.60;;;;;;5145298;27;45456;-78
2022/03/11 11:55:13;;;;;;;9.10;4.20;;;19.30;37.50;;;;;;5145609;27;45264;-78
2022/03/11 11:57:42;;;;;;;8.18;4.60;;;18.90;38.10;;;;;;5141547;27;48205;-78
2022/03/11 12:00:34;;;;;;;7.43;4.20;;;18.60;38.20;;;;;;5144810;27;45264;-78
2022/03/11 12:03:01;;;;;;;7.25;3.67;;;18.50;38.50;;;;;;5125450;27;45230;-78
2022/03/11 12:05:43;;;;;;;6.93;4.03;;;18.40;38.60;;;;;;5141543;27;45251;-78
2022/03/11 12:08:32;;;;;;;6.25;4.05;;;18.30;38.70;;;;;;5141870;27;45286;-78
2022/03/11 12:10:59;;;;;;;5.95;3.60;;;18.30;38.70;;;;;;5145139;27;45299;-78
2022/03/11 12:13:33;;;;;;;9.00;4.15;;;18.20;38.50;;;;;;5143345;27;45315;-78
2022/03/11 12:16:01;;;;;;;6.32;3.80;;;18.20;38.50;;;;;;5143749;27;45271;-78
2022/03/11 12:18:42;;;;;;;6.40;4.13;;;18.20;38.50;;;;;;5140190;27;45680;-78
2022/03/11 12:21:23;;;;;;;7.82;4.43;;;18.10;38.50;;;;;;5145131;27;45171;-78
2022/03/11 12:23:51;;;;;;;4.70;3.60;;;18.10;38.50;;;;;;5142535;27;45255;-78
2022/03/11 12:26:18;;;;;;;7.40;3.95;;;18.10;38.50;;;;;;5143692;27;45269;-78
2022/03/11 12:28:45;;;;;;;7.88;3.78;;;18.10;38.40;;;;;;5144133;27;46607;-78
2022/03/11 12:31:14;;;;;;;6.65;3.80;;;18.10;38.50;;;;;;5140841;27;45331;-78
2022/03/11 12:33:42;;;;;;;6.15;3.75;;;18.10;38.30;;;;;;5133752;27;45304;-78
2022/03/11 12:36:11;;;;;;;7.03;4.00;;;18.00;38.20;;;;;;5142794;27;45303;-77
2022/03/11 12:38:38;;;;;;;6.13;3.70;;;18.10;38.10;;;;;;5139318;27;46334;-78
2022/03/11 12:41:10;;;;;;;6.47;4.10;;;18.00;38.10;;;;;;5142329;27;45344;-78
2022/03/11 12:43:37;;;;;;;6.88;4.15;;;18.00;38.00;;;;;;5138370;27;45417;-78
2022/03/11 12:46:06;;;;;;;6.53;3.65;;;17.90;38.00;;;;;;5141608;27;45300;-78
2022/03/11 12:48:36;;;;;;;6.38;3.60;;;17.90;38.50;;;;;;5127122;27;47353;-78
2022/03/11 12:51:04;;;;;;;9.10;3.88;;;17.90;38.80;;;;;;5125076;27;45241;-77
2022/03/11 12:53:31;;;;;;;6.70;3.78;;;17.90;38.80;;;;;;5125436;27;46936;-78
2022/03/11 12:55:58;;;;;;;6.03;3.65;;;17.90;38.80;;;;;;5125158;27;45412;-78